Terminal Aerodrome Forecast
Issued by NWS

Home | Current Version | Previous Version | Text Only | Print | Product List | Glossary On
Versions: 1 2 3 4 5 6 7 8 9 10 11 12 13 14 15 16 17 18
000
FTAK31 PAJN 192000 AAA
TAFAYA
TAF AMD
PAYA 192055Z 1921/2018 15012G22KT 3SM -RA BR BKN017 OVC023
      WS020/14040KT
      TEMPO 1921/2001 1 1/2SM RA BR OVC005
     FM200100 11005KT 6SM -SHRA BKN025 OVC040
     FM200600 00000KT 6SM BR VCSH SCT025 BKN040 OVC060
      AMD LTD TO CLD VIS AND WIND 2001/2010=

USA.gov is the U.S. government's official web portal to all federal, state and local government web resources and services.